Florence, Italy

3:49 AM CET on February 08, 2016 (GMT +0100)
Peretola | | Change Station
CLOSE
Current Station
Airport
Location: Florence,
Elevation: 125 ft
Nearby Weather Stations

Elev 125 ft 43.81 °N, 11.20 °E | Updated 29 minutes ago

Mostly Cloudy
Mostly Cloudy
54 °F
Feels Like 54 °F
N
8
Wind Variable Wind from East

Today
High -- | Low -- °F
--% Chance of Precip.
Yesterday
High -- | Low -- °F
Precip. -- in
Pressure 29.92 in
Visibility 6.2 miles
Clouds Mostly Cloudy 3000 ft
Dew Point 48 °F
Humidity 82%
Rainfall 0.00 in
Snow Depth Not available.
7:24 AM 5:34 PM
Waning Crescent, 0% visible
METAR LIRQ 080220Z 08007KT 9999 BKN030 12/09 Q1013
Pressure 29.92 in
Visibility 6.2 miles
Clouds Mostly Cloudy 3000 ft
Dew Point 48 °F
Humidity 82%
Rainfall 0.00 in
Snow Depth Not available.
7:24 AM 5:34 PM
Waning Crescent, 0% visible
METAR LIRQ 080220Z 08007KT 9999 BKN030 12/09 Q1013

10-Day Weather Forecast

Almanac

Astronomy

Feb. 08, 2016 Rise Set
Actual Time
Civil Twilight
Nautical Twilight
Astronomical Twilight
Moon
Length of Visible Light
Length of Day
Tomorrow will be .
, % of the Moon is Illuminated

Today's Extremes

Country Highs Country Lows

Community

WunderPhotos

Upload Photos

1,891,373 photos uploaded!

WunderBlog® & News

Nearby

Air Quality

  Air Quality AQ Index Pollutant
Not available.

Snow Depth

Station Depth Elevation

Earthquake Activity

City Distance Mag. Time & Date
Minimum magnitude displayed is 2.5.

Coastal Water Temperatures

Place Temperature

Stations

Nearby Weather Stations

Station Location Temp. Windchill Dew Point Humidity Wind Precip. Elev Updated Type